Vremea acum in Eforie - Romania

Vrei sa afli care e starea vremii acum in Constanta - Romania? Dorim sa iti furnizam starea vremii pentru Constanta - Romania. Starea vremii Constanta - Romania pentru astazi.

Vremea acum in Eforie

Temperatura: 19 °C

Se simte ca: 19 °C
Innorat: 75 %
Precipitatii: 0 %
Presiune atmosferica: 1019 hPa
Umiditate: 83%
Vizibilitate: 10 km
Vantul bate din NE cu 19.1 km/h

Evolutia vremii in Eforie pe ore

Ora: 21:00
Cer acoperit
Temperatura: 18.7°C
Sansa de precipitatii: 0%
Ora Descriere Temp Se simte Precipitatii Umiditate Vant
00:00Parțial noros18.4°18.4°0%68%SW 14 KM/H
01:00Parțial noros19.1°19.1°0%70%ESE 15.8 KM/H
02:00Parțial noros19.7°19.7°0%73%NNE 17.6 KM/H
03:00Parțial noros19.3°19.3°0%78%NNE 19.4 KM/H
04:00Parțial noros19°19°0%83%NNE 20.9 KM/H
05:00Parțial noros18.6°18.6°0%87%NNE 22.7 KM/H
06:00Cer acoperit19.2°19.2°0%85%NNE 24.5 KM/H
07:00Parțial noros19.8°19.8°0%82%NNE 26.6 KM/H
08:00Cer acoperit20.4°20.4°0%80%NE 28.4 KM/H
09:00Ploi pe porţiuni în apropiere21°21°33%77%NE 28.8 KM/H
10:00Cer acoperit21.7°21.7°66%75%NE 29.2 KM/H
11:00Ploi pe porţiuni în apropiere22.3°24.7°99%73%NE 29.5 KM/H
12:00Ploi pe porţiuni în apropiere22.3°24.7°96%72%NE 29.5 KM/H
13:00Ploi pe porţiuni în apropiere22.2°24.6°94%71%ENE 29.2 KM/H
14:00Ploi pe porţiuni în apropiere22.2°24.6°91%70%ENE 29.2 KM/H
15:00Parțial noros21.8°21.8°61%72%ENE 28.4 KM/H
16:00Ploi pe porţiuni în apropiere21.3°21.3°30%74%ENE 27.7 KM/H
17:00Parțial noros20.9°20.9°0%76%ENE 27 KM/H
18:00Noros20.2°20.2°0%80%NE 25.2 KM/H
19:00Parțial noros19.5°19.5°0%84%NE 23.8 KM/H
20:00Noros18.8°18.8°0%88%NE 22 KM/H
21:00Cer acoperit18.7°18.7°0%87%NE 23.4 KM/H
22:00Noros18.5°18.5°0%86%NE 24.5 KM/H
23:00Cer acoperit18.4°18.4°0%86%NE 25.9 KM/H